Terminal Aerodrome Forecast
Issued by NWS Cleveland, OH

Home | Current Version | Previous Version | Graphics & Text | Print | Product List | Glossary On
Versions: 1 2 3 4 5 6 7 8 9 10 11 12 13 14 15 16 17 18 19
000
FTUS41 KCLE 232300
TAFERI
TAF
KERI 232337Z 2400/2424 15008KT P6SM BKN025 OVC060
     FM240700 15010KT 6SM -SHRA OVC025
     FM241200 15010KT 5SM BR OVC009
     FM241800 17012G20KT P6SM -SHRA BKN015 OVC025
     FM242200 19020G30KT P6SM -SHRA OVC025=

USA.gov is the U.S. government's official web portal to all federal, state and local government web resources and services.